Time;durP1;ratioP1;P1;durP2;ratioP2;P2;SDS_P1;SDS_P2;PMS_P1;PMS_P2;Temp;Humidity;BMP_temperature;BMP_pressure;BME280_temperature;BME280_humidity;BME280_pressure;Samples;Min_cycle;Max_cycle;Signal;HPM_P1;HPM_P2
2022/09/08 00:01:00;;;;;;;14.05;4.35;;;;;;;17.05;47.04;100520.03;5092649;28;20044;-70
2022/09/08 00:03:28;;;;;;;8.82;4.30;;;;;;;17.03;46.94;100519.44;5093093;28;20051;-70
2022/09/08 00:05:59;;;;;;;9.52;4.60;;;;;;;17.12;46.48;100516.28;5093133;28;20036;-71
2022/09/08 00:08:27;;;;;;;9.05;4.18;;;;;;;17.16;46.33;100519.41;5093144;28;20476;-70
2022/09/08 00:10:57;;;;;;;11.13;4.78;;;;;;;17.03;46.65;100511.31;5092535;28;20040;-70
2022/09/08 00:13:26;;;;;;;12.95;4.28;;;;;;;17.16;46.34;100510.44;5092693;28;20044;-70
2022/09/08 00:15:54;;;;;;;15.25;4.75;;;;;;;17.16;46.31;100505.84;5092595;28;20130;-70
2022/09/08 00:18:22;;;;;;;12.93;3.92;;;;;;;17.07;46.44;100512.56;5092346;28;20400;-70
2022/09/08 00:20:50;;;;;;;13.65;4.03;;;;;;;17.12;46.14;100505.44;5092523;28;20074;-70
2022/09/08 00:23:16;;;;;;;11.38;4.13;;;;;;;17.11;46.23;100511.09;5092627;28;20047;-70
2022/09/08 00:25:43;;;;;;;8.95;4.10;;;;;;;16.99;46.42;100510.88;5092212;28;20090;-70
2022/09/08 00:28:09;;;;;;;8.20;4.10;;;;;;;16.90;46.26;100507.53;5091983;28;20048;-70
2022/09/08 00:30:35;;;;;;;18.95;5.00;;;;;;;16.80;46.63;100498.16;5092153;28;20040;-70
2022/09/08 00:33:02;;;;;;;14.60;4.18;;;;;;;16.74;46.40;100497.09;5091718;28;20056;-70
2022/09/08 00:35:29;;;;;;;12.10;4.53;;;;;;;16.78;46.34;100509.19;5092093;28;20472;-71
2022/09/08 00:37:55;;;;;;;16.38;4.50;;;;;;;16.94;45.83;100515.25;5092325;28;20503;-70
2022/09/08 00:40:24;;;;;;;21.67;4.28;;;;;;;16.66;46.40;100518.97;5087203;28;20040;-70
2022/09/08 00:43:01;;;;;;;13.75;4.55;;;;;;;16.62;46.64;100521.25;5095524;28;20044;-70
2022/09/08 00:45:44;;;;;;;11.60;3.95;;;;;;;16.71;46.49;100504.78;5096059;28;20415;-70
2022/09/08 00:48:17;;;;;;;13.00;4.35;;;;;;;16.81;46.00;100505.22;5096805;28;20051;-70
2022/09/08 00:50:44;;;;;;;19.05;4.10;;;;;;;16.89;45.78;100505.03;5095898;28;20495;-70
2022/09/08 00:53:16;;;;;;;12.20;4.07;;;;;;;16.92;45.92;100504.63;5078594;28;20055;-70
2022/09/08 00:55:43;;;;;;;18.33;4.68;;;;;;;16.74;45.84;100501.66;5095293;28;20040;-70
2022/09/08 00:58:11;;;;;;;11.75;4.32;;;;;;;16.78;45.94;100492.94;5095851;28;20048;-70
2022/09/08 01:00:40;;;;;;;16.80;4.82;;;;;;;16.77;46.06;100495.84;5094289;28;20044;-70
2022/09/08 01:03:09;;;;;;;11.15;3.85;;;;;;;16.65;45.79;100499.16;5087140;28;20060;-70
2022/09/08 01:12:44;;;;;;;14.95;4.22;;;;;;;16.49;46.48;100487.84;5094502;28;20052;-71
2022/09/08 01:15:22;;;;;;;10.18;4.47;;;;;;;16.45;46.22;100492.84;5094536;28;20047;-71
2022/09/08 01:17:54;;;;;;;10.10;4.40;;;;;;;16.52;45.89;100499.13;5094704;28;20036;-71
2022/09/08 01:20:53;;;;;;;12.85;4.38;;;;;;;16.33;46.42;100489.03;5094661;28;20048;-71
2022/09/08 01:23:42;;;;;;;14.38;3.70;;;;;;;16.56;46.08;100486.84;5094351;28;20059;-71
2022/09/08 01:26:40;;;;;;;11.70;4.15;;;;;;;16.46;45.97;100482.84;5085066;28;20056;-70
2022/09/08 01:29:09;;;;;;;13.45;3.67;;;;;;;16.62;45.58;100490.63;5093745;28;20058;-71
2022/09/08 01:31:39;;;;;;;8.98;3.78;;;;;;;16.56;45.59;100494.97;5094961;28;20047;-71
2022/09/08 01:34:05;;;;;;;12.70;3.85;;;;;;;16.60;45.44;100504.34;5093895;28;20066;-71
2022/09/08 01:36:32;;;;;;;12.50;3.90;;;;;;;16.51;45.44;100499.34;5095130;28;20051;-71
2022/09/08 01:38:58;;;;;;;13.60;4.22;;;;;;;16.44;45.56;100499.31;5093691;28;20499;-71
2022/09/08 01:41:25;;;;;;;9.68;4.30;;;;;;;16.56;45.26;100503.09;5094234;28;20051;-71
2022/09/08 01:43:51;;;;;;;9.20;4.25;;;;;;;16.42;45.41;100498.66;5094401;28;20552;-71
2022/09/08 01:46:18;;;;;;;15.68;4.25;;;;;;;16.51;45.45;100502.06;5094116;28;20055;-71
2022/09/08 01:48:45;;;;;;;10.40;3.45;;;;;;;16.39;45.54;100493.66;5095050;28;20078;-71
2022/09/08 01:51:11;;;;;;;11.80;3.80;;;;;;;16.15;45.91;100489.63;5090413;28;20503;-71
2022/09/08 01:53:38;;;;;;;10.82;4.40;;;;;;;16.36;45.69;100488.66;5092678;28;20055;-71
2022/09/08 01:56:05;;;;;;;10.05;3.55;;;;;;;16.34;45.69;100475.31;5093464;28;20052;-71
2022/09/08 01:58:33;;;;;;;17.00;4.22;;;;;;;16.11;46.16;100464.84;5093677;28;20044;-71
2022/09/08 02:00:59;;;;;;;12.60;3.40;;;;;;;16.16;46.06;100467.78;5091501;28;20048;-71
2022/09/08 02:03:26;;;;;;;11.23;3.88;;;;;;;16.11;45.76;100464.84;5093404;28;20089;-71
2022/09/08 02:05:52;;;;;;;14.93;3.60;;;;;;;16.15;45.84;100462.56;5089775;28;20044;-71
2022/09/08 02:08:19;;;;;;;12.05;4.03;;;;;;;16.07;45.69;100466.28;5093049;28;20047;-71
2022/09/08 02:10:56;;;;;;;9.70;3.63;;;;;;;15.94;45.89;100463.53;5093979;28;20048;-72
2022/09/08 02:13:23;;;;;;;10.00;3.55;;;;;;;15.95;46.01;100466.03;5092403;28;20048;-71
2022/09/08 02:15:49;;;;;;;11.57;4.13;;;;;;;15.87;45.96;100468.06;5092935;28;20043;-71
2022/09/08 02:18:16;;;;;;;9.60;3.22;;;;;;;15.78;46.07;100470.13;5076048;28;20047;-71
2022/09/08 02:20:43;;;;;;;16.60;3.53;;;;;;;15.80;45.91;100469.91;5093514;28;20423;-70
2022/09/08 02:23:09;;;;;;;11.25;3.88;;;;;;;15.97;45.61;100470.41;5092014;28;20048;-70
2022/09/08 02:25:35;;;;;;;12.75;3.45;;;;;;;15.76;45.91;100482.16;5092843;28;20044;-71
2022/09/08 02:28:02;;;;;;;14.45;3.50;;;;;;;15.70;45.90;100471.09;5092020;28;20052;-70
2022/09/08 02:30:28;;;;;;;12.52;3.85;;;;;;;15.64;46.09;100471.06;5092646;28;20502;-70
2022/09/08 02:32:55;;;;;;;15.13;3.45;;;;;;;15.65;45.91;100464.66;5091980;28;20419;-70
2022/09/08 02:35:22;;;;;;;12.40;4.15;;;;;;;15.53;46.01;100467.03;5092738;28;20135;-70
2022/09/08 02:37:48;;;;;;;9.02;3.50;;;;;;;15.58;45.69;100456.47;5081025;28;20396;-70
2022/09/08 02:40:15;;;;;;;13.27;4.47;;;;;;;15.59;45.63;100457.28;5092568;28;20047;-70
2022/09/08 02:42:42;;;;;;;8.38;3.67;;;;;;;15.53;45.74;100453.50;5092737;28;20127;-70
2022/09/08 02:45:09;;;;;;;10.45;3.13;;;;;;;15.45;45.70;100451.81;5092021;28;20083;-70
2022/09/08 02:47:35;;;;;;;9.20;3.55;;;;;;;15.51;45.82;100446.66;5091792;28;20040;-70
2022/09/08 02:50:02;;;;;;;10.32;3.63;;;;;;;15.55;45.44;100443.34;5091597;28;20055;-70
2022/09/08 02:52:30;;;;;;;14.43;3.40;;;;;;;15.52;45.52;100443.72;5090576;28;20050;-70
2022/09/08 02:54:58;;;;;;;14.30;3.53;;;;;;;15.44;45.56;100450.13;5091434;28;20050;-70
2022/09/08 02:57:24;;;;;;;11.48;3.10;;;;;;;15.51;45.23;100449.34;5091938;28;20381;-70
2022/09/08 02:59:51;;;;;;;15.52;3.30;;;;;;;15.68;45.03;100448.03;5092103;28;20048;-70
2022/09/08 03:02:17;;;;;;;11.38;3.80;;;;;;;15.43;45.29;100450.31;5092240;28;20044;-70
2022/09/08 03:04:44;;;;;;;15.18;3.05;;;;;;;15.45;45.15;100445.56;5092081;28;20396;-70
2022/09/08 03:07:10;;;;;;;11.98;3.33;;;;;;;15.29;45.71;100438.59;5090915;28;20127;-70
2022/09/08 03:09:37;;;;;;;12.15;3.38;;;;;;;15.27;45.50;100442.56;5091015;28;20480;-70
2022/09/08 03:12:03;;;;;;;16.52;3.50;;;;;;;15.52;45.01;100446.44;5091278;28;20052;-70
2022/09/08 03:14:30;;;;;;;9.82;3.03;;;;;;;15.61;44.56;100426.31;5089480;28;20048;-70
2022/09/08 03:16:56;;;;;;;12.43;3.50;;;;;;;15.48;44.64;100432.47;5091314;28;20048;-70
2022/09/08 03:19:23;;;;;;;10.50;3.55;;;;;;;15.39;45.09;100422.03;5091085;28;20063;-70
2022/09/08 03:21:49;;;;;;;7.30;3.03;;;;;;;15.19;45.43;100417.34;5092008;28;20052;-70
2022/09/08 03:24:16;;;;;;;9.45;3.55;;;;;;;15.00;45.47;100412.63;5090641;28;20048;-70
2022/09/08 03:26:42;;;;;;;7.38;3.40;;;;;;;15.05;45.49;100409.34;5091773;28;20492;-70
2022/09/08 03:29:09;;;;;;;13.88;3.53;;;;;;;15.05;45.37;100403.94;5090653;28;20158;-70
2022/09/08 03:31:36;;;;;;;10.20;3.30;;;;;;;15.16;44.85;100408.81;5091902;28;20423;-70
2022/09/08 03:34:03;;;;;;;17.38;4.07;;;;;;;15.27;44.67;100419.06;5088985;28;20443;-70
2022/09/08 03:36:29;;;;;;;11.40;3.67;;;;;;;15.21;44.66;100415.28;5091292;28;20044;-70
2022/09/08 03:38:55;;;;;;;9.35;2.97;;;;;;;15.18;44.54;100414.81;5081996;28;20064;-70
2022/09/08 03:41:22;;;;;;;16.25;3.40;;;;;;;15.17;44.54;100418.56;5090827;28;20040;-70
2022/09/08 03:43:50;;;;;;;10.00;3.28;;;;;;;15.18;44.67;100412.13;5090168;28;20044;-70
2022/09/08 03:46:17;;;;;;;14.00;3.72;;;;;;;15.18;44.31;100418.38;5090982;28;20052;-70
2022/09/08 03:48:45;;;;;;;5.95;2.75;;;;;;;15.05;44.90;100425.53;5091061;28;20040;-70
2022/09/08 03:51:22;;;;;;;11.32;3.90;;;;;;;14.93;45.05;100423.38;5080357;28;20068;-70
2022/09/08 03:53:50;;;;;;;18.02;3.05;;;;;;;15.17;44.40;100418.56;5090931;28;20456;-70
2022/09/08 03:56:17;;;;;;;8.77;3.08;;;;;;;15.14;44.28;100419.78;5090250;28;20044;-70
2022/09/08 03:58:44;;;;;;;14.70;3.30;;;;;;;14.87;44.64;100409.84;5090873;28;20048;-70
2022/09/08 04:01:17;;;;;;;7.80;3.33;;;;;;;14.76;44.74;100409.34;5090947;28;20102;-70
2022/09/08 04:03:44;;;;;;;8.90;3.25;;;;;;;14.69;44.76;100400.31;5090068;28;20058;-69
2022/09/08 04:06:13;;;;;;;12.50;3.78;;;;;;;14.75;44.67;100399.56;5092790;28;20052;-70
2022/09/08 04:08:40;;;;;;;8.57;3.33;;;;;;;14.83;44.40;100400.47;5092273;28;20416;-69
2022/09/08 04:11:07;;;;;;;10.20;3.72;;;;;;;14.84;44.23;100397.53;5089885;28;20073;-70
2022/09/08 04:13:33;;;;;;;12.55;3.15;;;;;;;14.80;44.46;100395.44;5089947;28;20040;-71
2022/09/08 04:16:02;;;;;;;7.70;3.53;;;;;;;14.67;44.62;100385.34;5089929;28;20459;-70
2022/09/08 04:18:29;;;;;;;10.10;3.22;;;;;;;14.92;44.18;100391.19;5093319;28;20048;-70
2022/09/08 04:21:00;;;;;;;17.08;3.53;;;;;;;14.81;44.24;100394.41;5093204;28;20044;-70
2022/09/08 04:23:26;;;;;;;23.00;3.87;;;;;;;14.83;44.25;100386.94;5088475;28;20039;-70
2022/09/08 04:26:02;;;;;;;10.57;3.20;;;;;;;14.79;44.07;100386.50;5091265;28;20051;-70
2022/09/08 04:28:29;;;;;;;12.65;3.35;;;;;;;14.85;44.15;100387.59;5090077;28;20048;-70
2022/09/08 04:30:56;;;;;;;16.42;3.17;;;;;;;14.75;44.35;100382.53;5090151;28;20047;-70
2022/09/08 04:33:22;;;;;;;12.63;3.50;;;;;;;14.72;44.44;100381.06;5090744;28;20040;-70
2022/09/08 04:35:49;;;;;;;10.25;3.63;;;;;;;14.75;44.17;100372.56;5089422;28;20048;-70
2022/09/08 04:38:26;;;;;;;9.38;3.20;;;;;;;14.62;44.32;100372.44;5082147;28;20330;-70
2022/09/08 04:40:53;;;;;;;11.30;3.33;;;;;;;14.64;44.47;100380.34;5069520;28;20036;-70
2022/09/08 04:43:19;;;;;;;18.30;4.43;;;;;;;14.54;44.79;100369.88;5070335;28;20423;-70
2022/09/08 04:45:45;;;;;;;15.82;3.53;;;;;;;14.55;44.70;100376.94;5070040;28;20048;-70
2022/09/08 04:48:12;;;;;;;16.20;3.97;;;;;;;14.35;44.70;100382.16;5069872;28;20055;-71
2022/09/08 04:50:39;;;;;;;9.25;3.40;;;;;;;14.40;44.58;100379.72;5068940;28;20040;-70
2022/09/08 04:53:05;;;;;;;21.40;4.32;;;;;;;14.53;44.53;100381.69;5052713;28;20481;-70
2022/09/08 04:55:32;;;;;;;15.63;4.20;;;;;;;14.75;44.14;100383.38;5069772;28;20480;-70
2022/09/08 04:57:58;;;;;;;16.85;4.07;;;;;;;14.72;44.19;100382.94;5070421;28;20047;-70
2022/09/08 05:00:25;;;;;;;14.00;3.60;;;;;;;14.57;44.28;100385.69;5069469;28;20051;-70
2022/09/08 05:02:51;;;;;;;19.40;3.72;;;;;;;14.70;43.90;100384.94;5071175;28;20055;-70
2022/09/08 05:05:18;;;;;;;17.02;4.05;;;;;;;14.50;44.44;100382.94;5070560;28;20048;-70
2022/09/08 05:07:48;;;;;;;10.00;3.65;;;;;;;14.46;44.41;100383.50;5070340;28;20058;-70
2022/09/08 05:10:15;;;;;;;13.93;4.20;;;;;;;14.68;44.34;100395.94;5070552;28;20064;-70
2022/09/08 05:12:41;;;;;;;11.90;3.13;;;;;;;14.60;44.29;100395.25;5069537;28;20048;-70
2022/09/08 05:15:08;;;;;;;21.98;4.25;;;;;;;14.85;44.02;100393.00;5069758;28;20049;-70
2022/09/08 05:17:35;;;;;;;14.38;3.80;;;;;;;14.68;44.44;100387.84;5069972;28;20040;-70
2022/09/08 05:20:02;;;;;;;10.23;4.50;;;;;;;14.49;44.63;100380.41;5069535;28;20044;-70
2022/09/08 05:22:29;;;;;;;16.92;4.13;;;;;;;14.71;44.47;100379.41;5069160;28;20048;-71
2022/09/08 05:24:56;;;;;;;12.30;3.60;;;;;;;14.52;44.59;100378.16;5070237;28;20044;-70
2022/09/08 05:27:22;;;;;;;10.05;3.47;;;;;;;14.45;44.83;100379.13;5072136;28;20060;-70
2022/09/08 05:29:48;;;;;;;14.73;4.30;;;;;;;14.33;45.03;100386.94;5073621;28;20409;-70
2022/09/08 05:32:15;;;;;;;14.27;3.60;;;;;;;14.46;45.09;100383.50;5072792;28;20063;-71
2022/09/08 05:34:41;;;;;;;19.40;4.53;;;;;;;14.64;44.52;100391.97;5071656;28;20393;-71
2022/09/08 05:37:08;;;;;;;14.57;3.47;;;;;;;14.63;44.35;100381.34;5072637;28;20075;-70
2022/09/08 05:39:34;;;;;;;10.20;4.10;;;;;;;14.58;44.55;100381.94;5088648;28;20051;-70
2022/09/08 05:42:01;;;;;;;13.57;4.18;;;;;;;14.62;44.70;100377.81;5092508;28;20539;-70
2022/09/08 05:44:27;;;;;;;15.77;3.83;;;;;;;14.48;44.70;100376.88;5093589;28;20040;-69
2022/09/08 05:46:54;;;;;;;12.05;4.47;;;;;;;14.68;44.61;100381.63;5093776;28;20044;-70
2022/09/08 05:49:20;;;;;;;10.65;3.88;;;;;;;14.35;45.53;100376.75;5092618;28;20480;-69
2022/09/08 05:51:49;;;;;;;11.63;3.90;;;;;;;14.65;44.93;100377.44;5093040;28;20055;-71
2022/09/08 05:54:15;;;;;;;12.32;3.92;;;;;;;14.88;44.16;100377.25;5092634;28;20048;-70
2022/09/08 05:56:42;;;;;;;13.60;4.68;;;;;;;14.79;44.55;100378.41;5092974;28;20048;-70
2022/09/08 05:59:11;;;;;;;15.45;4.65;;;;;;;14.64;44.80;100391.97;5092865;28;20059;-70
2022/09/08 06:01:37;;;;;;;18.58;4.43;;;;;;;14.59;44.65;100382.78;5092534;28;20051;-71
2022/09/08 06:04:04;;;;;;;20.42;4.28;;;;;;;14.53;44.89;100384.38;5092426;28;20048;-70
2022/09/08 06:06:31;;;;;;;22.13;4.25;;;;;;;14.41;45.26;100391.34;5082819;28;20044;-70
2022/09/08 06:08:59;;;;;;;13.73;4.20;;;;;;;14.63;44.90;100384.88;5091623;28;20047;-70
2022/09/08 06:11:28;;;;;;;13.20;4.50;;;;;;;14.41;45.36;100380.56;5093225;28;20036;-70
2022/09/08 06:13:55;;;;;;;18.73;5.72;;;;;;;14.36;45.38;100383.84;5093041;28;20441;-70
2022/09/08 06:16:22;;;;;;;15.15;4.57;;;;;;;14.63;44.83;100386.75;5092758;28;20043;-70
2022/09/08 06:18:48;;;;;;;9.82;4.40;;;;;;;14.61;44.98;100378.88;5092072;28;20472;-70
2022/09/08 06:21:21;;;;;;;13.07;4.40;;;;;;;14.72;44.66;100377.53;5093169;28;20051;-70
2022/09/08 06:23:49;;;;;;;18.35;5.63;;;;;;;14.52;45.27;100372.75;5092842;28;20511;-70
2022/09/08 06:26:34;;;;;;;20.88;4.78;;;;;;;14.45;45.23;100377.25;5092760;28;20135;-70
2022/09/08 06:29:12;;;;;;;15.98;4.40;;;;;;;14.78;44.86;100387.56;5091019;28;20499;-69
2022/09/08 06:32:14;;;;;;;11.90;4.15;;;;;;;14.61;45.27;100384.25;5080384;28;20051;-70
2022/09/08 06:34:49;;;;;;;12.82;4.78;;;;;;;14.66;45.03;100379.09;5041589;28;20401;-70
2022/09/08 06:37:44;;;;;;;9.85;4.32;;;;;;;14.54;45.58;100386.91;5072242;28;20045;-70
2022/09/08 06:40:22;;;;;;;16.58;5.15;;;;;;;14.71;45.23;100395.59;5042979;28;20477;-69
2022/09/08 06:43:06;;;;;;;16.45;4.47;;;;;;;14.66;45.17;100389.06;5052597;28;20049;-70
2022/09/08 06:45:42;;;;;;;19.60;5.05;;;;;;;14.85;44.98;100382.19;5051154;28;20052;-69
2022/09/08 06:48:11;;;;;;;14.02;4.55;;;;;;;14.46;45.90;100384.34;5052308;28;20051;-71
2022/09/08 06:50:48;;;;;;;17.38;5.28;;;;;;;14.62;45.44;100380.53;5053736;28;20045;-70
2022/09/08 06:53:22;;;;;;;16.73;5.07;;;;;;;14.62;45.67;100388.63;5053200;28;20063;-71
2022/09/08 06:56:01;;;;;;;13.13;4.55;;;;;;;14.77;45.64;100381.31;5052575;28;20069;-71
2022/09/08 06:58:51;;;;;;;20.50;5.55;;;;;;;14.94;45.09;100371.03;5043331;28;20057;-70
2022/09/08 07:01:32;;;;;;;15.00;4.65;;;;;;;14.92;45.24;100372.28;5051805;28;20053;-71
2022/09/08 07:04:37;;;;;;;6.50;3.23;;;;;;;14.84;45.31;100369.72;5053091;28;20107;-70
2022/09/08 07:07:26;;;;;;;11.98;4.70;;;;;;;14.81;45.48;100354.75;5051028;28;20056;-70
2022/09/08 07:10:11;;;;;;;12.65;4.32;;;;;;;14.74;45.58;100356.56;5052976;28;20481;-70
2022/09/08 07:12:43;;;;;;;15.65;5.00;;;;;;;15.05;45.20;100358.00;5053049;28;20048;-70
2022/09/08 07:15:12;;;;;;;10.10;4.43;;;;;;;14.86;45.59;100352.28;5052708;28;20481;-70
2022/09/08 07:17:49;;;;;;;9.20;4.25;;;;;;;14.73;45.79;100336.81;5046241;28;20040;-71
2022/09/08 07:20:15;;;;;;;24.45;5.22;;;;;;;14.62;46.24;100337.34;5053232;28;20045;-70
2022/09/08 07:22:53;;;;;;;14.68;4.95;;;;;;;14.74;46.00;100340.38;5052122;28;20067;-70
2022/09/08 07:25:41;;;;;;;17.33;5.25;;;;;;;14.98;45.91;100344.44;5052671;28;20405;-70
2022/09/08 07:28:23;;;;;;;16.85;4.90;;;;;;;15.41;44.98;100360.50;5052164;28;20375;-70
2022/09/08 07:30:54;;;;;;;;;;;;;;;15.53;44.78;100385.91;5051789;28;20049;-71
2022/09/08 07:33:27;;;;;;;15.43;4.68;;;;;;;15.19;45.25;100363.31;5051930;28;20383;-71
2022/09/08 07:36:15;;;;;;;13.25;5.13;;;;;;;15.41;45.00;100355.94;5052754;28;20469;-71
2022/09/08 07:38:48;;;;;;;15.23;4.97;;;;;;;15.70;44.49;100354.81;5061758;28;20048;-71
2022/09/08 07:41:36;;;;;;;15.32;5.75;;;;;;;15.43;45.80;100361.13;5067347;28;20045;-71
2022/09/08 07:44:11;;;;;;;19.33;5.18;;;;;;;15.41;45.71;100355.94;5071492;28;20400;-71
2022/09/08 07:46:50;;;;;;;15.50;5.18;;;;;;;15.15;46.49;100340.41;5068830;28;20048;-71
2022/09/08 07:49:23;;;;;;;13.60;4.93;;;;;;;15.08;46.57;100346.81;5071958;28;20048;-71
2022/09/08 07:52:02;;;;;;;15.60;5.72;;;;;;;15.22;46.06;100346.69;5071713;28;20048;-71
2022/09/08 07:54:49;;;;;;;14.82;5.35;;;;;;;15.19;46.60;100352.50;5071371;28;20047;-71
2022/09/08 07:57:32;;;;;;;23.40;6.03;;;;;;;15.12;49.73;100354.34;5071676;28;20055;-71
2022/09/08 08:00:12;;;;;;;22.77;6.85;;;;;;;14.55;54.45;100355.34;5070996;28;20499;-70
2022/09/08 08:03:17;;;;;;;18.83;5.47;;;;;;;14.03;55.44;100356.53;5071186;28;20397;-70
2022/09/08 08:05:50;;;;;;;19.20;6.03;;;;;;;13.83;56.49;100346.34;5071897;28;20044;-70
2022/09/08 08:08:25;;;;;;;14.88;5.68;;;;;;;13.97;56.69;100349.19;5071497;28;20055;-69
2022/09/08 08:11:03;;;;;;;15.80;5.38;;;;;;;14.10;55.87;100356.59;5071469;28;20040;-70
2022/09/08 08:13:51;;;;;;;16.10;5.97;;;;;;;14.18;55.11;100364.56;5071686;28;20373;-70
2022/09/08 08:16:32;;;;;;;12.98;5.80;;;;;;;14.44;53.90;100355.88;5070371;28;20044;-70
2022/09/08 08:19:19;;;;;;;20.63;5.93;;;;;;;14.60;53.34;100358.31;5073152;28;20079;-70
2022/09/08 08:21:57;;;;;;;12.60;5.43;;;;;;;14.45;52.20;100352.16;5071323;28;20046;-70
2022/09/08 08:24:26;;;;;;;11.98;5.18;;;;;;;14.68;52.23;100354.63;5071164;28;20045;-70
2022/09/08 08:27:11;;;;;;;19.45;5.68;;;;;;;14.61;51.24;100343.78;5070537;28;20054;-70
2022/09/08 08:29:58;;;;;;;15.57;5.47;;;;;;;14.64;51.54;100354.19;5071238;28;20044;-69
2022/09/08 08:32:32;;;;;;;13.88;5.50;;;;;;;14.85;51.06;100360.59;5071717;28;20043;-70
2022/09/08 08:35:13;;;;;;;13.38;6.00;;;;;;;15.15;50.58;100362.00;5071870;28;20135;-70
2022/09/08 08:37:41;;;;;;;24.52;6.57;;;;;;;14.73;57.97;100355.72;5059580;28;20048;-69
2022/09/08 08:40:27;;;;;;;12.10;5.95;;;;;;;14.25;57.74;100352.81;5074328;28;20044;-70
2022/09/08 08:43:02;;;;;;;13.90;6.30;;;;;;;13.98;59.13;100349.03;5070350;28;20052;-71
2022/09/08 08:45:41;;;;;;;13.15;6.18;;;;;;;13.90;58.82;100341.03;5070267;28;20055;-71
2022/09/08 08:48:17;;;;;;;13.70;5.95;;;;;;;13.93;58.95;100335.25;5070872;28;20047;-71
2022/09/08 08:51:06;;;;;;;21.52;6.70;;;;;;;13.91;58.94;100325.69;5070403;28;20063;-71
2022/09/08 08:53:41;;;;;;;18.80;7.13;;;;;;;13.85;59.51;100311.13;5071384;28;20044;-70
2022/09/08 08:56:40;;;;;;;24.42;7.47;;;;;;;13.66;59.83;100323.31;5071617;28;20090;-70
2022/09/08 08:59:25;;;;;;;19.45;7.20;;;;;;;13.66;61.44;100320.63;5072675;28;20049;-70
2022/09/08 09:02:00;;;;;;;17.58;7.05;;;;;;;13.79;61.48;100317.28;5073109;28;20051;-71
2022/09/08 09:04:32;;;;;;;23.98;7.20;;;;;;;13.74;61.95;100314.31;5076433;28;20135;-70
2022/09/08 09:07:28;;;;;;;17.98;7.15;;;;;;;13.74;62.09;100309.75;5075884;28;20040;-70
2022/09/08 09:10:19;;;;;;;15.88;6.88;;;;;;;13.84;62.29;100309.47;5073175;28;20040;-71
2022/09/08 09:13:04;;;;;;;19.23;6.85;;;;;;;13.83;62.02;100300.50;5074069;28;20036;-70
2022/09/08 09:15:36;;;;;;;19.23;7.63;;;;;;;13.83;62.14;100300.50;5075219;28;20044;-70
2022/09/08 09:18:41;;;;;;;19.40;7.43;;;;;;;13.96;61.73;100297.13;5073846;28;20078;-70
2022/09/08 09:21:31;;;;;;;19.45;7.82;;;;;;;14.11;61.79;100296.22;5073087;28;20366;-71
2022/09/08 09:24:14;;;;;;;16.38;8.13;;;;;;;14.08;61.67;100283.13;5023025;28;20044;-71
2022/09/08 09:26:47;;;;;;;20.48;7.65;;;;;;;14.22;61.08;100285.75;5055779;28;20051;-71
2022/09/08 09:29:20;;;;;;;15.85;7.50;;;;;;;14.39;61.14;100285.44;5072849;28;20045;-71
2022/09/08 09:32:17;;;;;;;17.50;7.75;;;;;;;14.49;60.54;100288.63;5072998;28;20044;-71
2022/09/08 09:35:29;;;;;;;21.25;7.50;;;;;;;14.43;60.98;100281.34;5072764;28;20406;-71
2022/09/08 09:38:10;;;;;;;19.30;7.47;;;;;;;14.40;61.76;100274.47;5073193;28;20040;-71
2022/09/08 09:40:57;;;;;;;15.93;7.57;;;;;;;14.25;62.33;100261.09;5073259;28;20045;-71
2022/09/08 09:43:52;;;;;;;18.00;8.07;;;;;;;14.17;62.55;100254.97;5062511;28;20516;-70
2022/09/08 09:46:25;;;;;;;15.95;7.93;;;;;;;14.22;62.98;100256.06;5073963;28;20045;-71
2022/09/08 09:49:41;;;;;;;17.63;8.10;;;;;;;14.16;63.16;100254.16;5074491;28;20048;-71
2022/09/08 09:52:53;;;;;;;24.65;8.65;;;;;;;14.14;63.27;100260.75;5071470;28;20044;-71
2022/09/08 09:55:26;;;;;;;19.27;8.18;;;;;;;14.12;63.28;100263.66;5072729;28;20049;-71
2022/09/08 09:58:08;;;;;;;26.50;8.65;;;;;;;14.24;63.35;100272.06;5072774;28;20456;-70
2022/09/08 10:00:58;;;;;;;19.58;9.02;;;;;;;14.38;63.70;100278.38;5073592;28;20071;-70
2022/09/08 10:03:58;;;;;;;19.80;8.73;;;;;;;14.60;63.36;100290.81;5072767;28;20049;-71
2022/09/08 10:06:41;;;;;;;28.10;8.68;;;;;;;14.62;64.17;100286.03;5072952;28;20063;-71
2022/09/08 10:09:51;;;;;;;25.67;9.13;;;;;;;14.29;63.50;100318.19;5072543;28;20090;-71
2022/09/08 10:12:41;;;;;;;35.03;10.52;;;;;;;14.29;63.19;100316.31;5035425;28;20051;-71
2022/09/08 10:15:39;;;;;;;20.35;9.18;;;;;;;14.58;63.97;100311.75;5071755;28;20051;-70
2022/09/08 10:18:09;;;;;;;24.75;10.57;;;;;;;14.60;63.35;100317.81;5072772;28;20055;-71
2022/09/08 10:21:00;;;;;;;23.48;10.25;;;;;;;14.80;63.79;100326.06;5071800;28;20076;-72
2022/09/08 10:23:29;;;;;;;23.00;10.48;;;;;;;14.74;64.04;100335.81;5072334;28;20056;-71
2022/09/08 10:26:29;;;;;;;25.70;10.45;;;;;;;14.70;64.00;100339.03;5070772;28;20044;-71
2022/09/08 10:29:22;;;;;;;25.27;10.23;;;;;;;14.75;64.62;100339.34;5072324;28;20048;-71
2022/09/08 10:31:51;;;;;;;27.88;10.18;;;;;;;14.80;66.09;100353.06;5070972;28;20049;-72
2022/09/08 10:34:49;;;;;;;27.73;11.18;;;;;;;14.67;67.08;100350.22;5072279;28;20044;-71
2022/09/08 10:37:33;;;;;;;20.27;9.90;;;;;;;14.50;67.46;100352.41;5072220;28;20427;-71
2022/09/08 10:40:25;;;;;;;23.13;10.55;;;;;;;14.65;67.97;100361.25;5071804;28;20349;-71
2022/09/08 10:44:45;;;;;;;26.67;10.70;;;;;;;-149.70;100.00;63222.41;5071268;28;20044;-71
2022/09/08 10:47:25;;;;;;;23.15;11.13;;;;;;;14.90;68.52;100288.72;5071994;28;20052;-71
2022/09/08 10:50:13;;;;;;;25.58;11.77;;;;;;;14.93;69.47;100268.59;5074060;28;20507;-71
2022/09/08 10:52:55;;;;;;;24.65;12.45;;;;;;;14.98;69.58;100279.63;5074040;28;20049;-71
2022/09/08 10:55:47;;;;;;;24.10;12.40;;;;;;;14.94;70.17;100284.59;5074129;28;20417;-71
2022/09/08 10:58:35;;;;;;;23.35;13.38;;;;;;;14.93;70.28;100292.91;5035277;28;20040;-71
2022/09/08 11:01:16;;;;;;;22.30;12.27;;;;;;;14.93;70.59;100282.09;5071995;28;20472;-71
2022/09/08 11:04:10;;;;;;;22.70;12.48;;;;;;;15.01;70.83;100290.88;5072012;28;20049;-71
2022/09/08 11:06:36;;;;;;;26.83;11.45;;;;;;;15.00;70.37;100299.19;5072122;28;20063;-71
2022/09/08 11:09:24;;;;;;;19.42;11.85;;;;;;;14.98;70.18;100295.84;5072274;28;20060;-71
2022/09/08 11:12:14;;;;;;;25.13;13.27;;;;;;;15.07;70.26;100305.44;5071518;28;20385;-70
2022/09/08 11:14:46;;;;;;;27.10;13.23;;;;;;;15.03;69.83;100296.09;5041506;28;20045;-70
2022/09/08 11:17:26;;;;;;;25.15;13.50;;;;;;;15.08;70.13;100300.88;5072373;28;20055;-70
2022/09/08 11:20:10;;;;;;;24.88;13.85;;;;;;;15.05;70.34;100299.44;5071479;28;20427;-71
2022/09/08 11:23:14;;;;;;;29.50;13.70;;;;;;;14.90;70.61;100277.94;5072018;28;20047;-70
2022/09/08 11:25:49;;;;;;;26.08;14.02;;;;;;;14.84;70.21;100269.78;5072445;28;20040;-71
2022/09/08 11:28:42;;;;;;;24.70;14.60;;;;;;;14.81;70.98;100264.78;5073175;28;20059;-71
2022/09/08 11:31:29;;;;;;;28.15;15.70;;;;;;;14.42;72.75;100276.97;5073825;28;20041;-71
2022/09/08 11:34:15;;;;;;;29.55;14.65;;;;;;;14.34;73.35;100294.13;5072729;28;20056;-70
2022/09/08 11:37:06;;;;;;;25.40;15.63;;;;;;;14.42;73.53;100266.16;5072798;28;20044;-70
2022/09/08 11:39:51;;;;;;;34.08;17.38;;;;;;;14.49;73.87;100264.34;5072238;28;20044;-70
2022/09/08 11:42:17;;;;;;;33.03;17.98;;;;;;;14.15;74.74;100263.28;5071501;28;20045;-71
2022/09/08 11:44:58;;;;;;;31.70;18.70;;;;;;;14.20;74.84;100254.59;5072378;28;20049;-70
2022/09/08 11:47:45;;;;;;;34.20;20.20;;;;;;;14.07;75.61;100266.09;5071462;28;20052;-71
2022/09/08 11:50:20;;;;;;;34.30;21.45;;;;;;;13.99;76.37;100242.81;5071605;28;20044;-70
2022/09/08 11:53:47;;;;;;;38.80;22.52;;;;;;;14.12;76.44;100225.91;5071280;28;20440;-70
2022/09/08 11:57:05;;;;;;;36.17;22.75;;;;;;;14.40;75.90;100222.38;5071012;28;20044;-70
2022/09/08 11:59:44;;;;;;;35.00;23.15;;;;;;;14.28;76.36;100222.06;5067275;28;20408;-70
2022/09/08 12:02:29;;;;;;;36.00;23.40;;;;;;;14.20;76.66;100233.84;5070176;28;20052;-69